Time;durP1;ratioP1;P1;durP2;ratioP2;P2;SDS_P1;SDS_P2;PMS_P1;PMS_P2;Temp;Humidity;BMP_temperature;BMP_pressure;BME280_temperature;BME280_humidity;BME280_pressure;Samples;Min_cycle;Max_cycle;Signal;HPM_P1;HPM_P2
2022/10/06 00:00:48;;;;;;;0.90;0.40;;;14.60;99.90;;;;;;5032645;28;20021;-75
2022/10/06 00:03:15;;;;;;;4.72;0.45;;;14.60;99.90;;;;;;5031131;28;20125;-78
2022/10/06 00:05:41;;;;;;;1.00;0.50;;;14.60;99.90;;;;;;5032590;28;20048;-78
2022/10/06 00:08:06;;;;;;;1.48;0.30;;;14.60;99.90;;;;;;5032771;28;20086;-76
2022/10/06 00:10:33;;;;;;;3.53;0.40;;;14.50;99.90;;;;;;5032168;28;20101;-78
2022/10/06 00:12:59;;;;;;;1.80;0.30;;;14.50;99.90;;;;;;5032864;28;20570;-77
2022/10/06 00:15:29;;;;;;;0.60;0.20;;;14.50;99.90;;;;;;5034506;28;20182;-78
2022/10/06 00:17:56;;;;;;;1.90;0.30;;;14.50;99.90;;;;;;5033487;28;20025;-76
2022/10/06 00:20:23;;;;;;;3.30;0.50;;;14.50;99.90;;;;;;5032942;28;21646;-76
2022/10/06 00:22:50;;;;;;;0.32;0.30;;;14.50;99.90;;;;;;5032033;28;20029;-77
2022/10/06 00:25:18;;;;;;;2.60;0.70;;;14.50;99.90;;;;;;5038685;28;20060;-75
2022/10/06 00:27:46;;;;;;;3.55;0.50;;;14.50;99.90;;;;;;5032168;28;20036;-80
2022/10/06 00:30:14;;;;;;;2.97;0.52;;;14.50;99.90;;;;;;5033453;28;20033;-75
2022/10/06 00:32:43;;;;;;;0.80;0.40;;;14.50;99.90;;;;;;5031224;28;20029;-80
2022/10/06 00:35:09;;;;;;;4.40;0.80;;;14.40;99.90;;;;;;5031797;28;20038;-78
2022/10/06 00:37:37;;;;;;;1.13;0.50;;;14.40;99.90;;;;;;5031337;28;20026;-77
2022/10/06 00:40:08;;;;;;;1.20;0.40;;;14.40;99.90;;;;;;5032371;28;20018;-77
2022/10/06 00:43:05;;;;;;;1.33;0.43;;;14.40;99.90;;;;;;5031733;28;20105;-76
2022/10/06 00:45:39;;;;;;;0.98;0.60;;;14.30;99.90;;;;;;5032068;28;20040;-78
2022/10/06 00:48:14;;;;;;;1.02;0.63;;;14.30;99.90;;;;;;5035435;28;20092;-77
2022/10/06 00:50:40;;;;;;;3.38;0.60;;;14.20;99.90;;;;;;5031355;28;20045;-77
2022/10/06 00:53:07;;;;;;;2.50;0.80;;;14.20;99.90;;;;;;5031521;28;20052;-79
2022/10/06 00:55:33;;;;;;;2.22;0.70;;;14.20;99.90;;;;;;5031510;28;20049;-77
2022/10/06 00:58:00;;;;;;;1.17;0.32;;;14.10;99.90;;;;;;5030203;28;20695;-80
2022/10/06 01:00:27;;;;;;;1.70;0.60;;;14.10;99.90;;;;;;5030055;28;20034;-80
2022/10/06 01:03:10;;;;;;;2.55;0.73;;;14.10;99.90;;;;;;5030797;28;20040;-79
2022/10/06 01:05:42;;;;;;;2.28;0.50;;;14.10;99.90;;;;;;5030445;28;20204;-78
2022/10/06 01:08:09;;;;;;;0.93;0.60;;;14.00;99.90;;;;;;5031970;28;20227;-83
2022/10/06 01:10:35;;;;;;;2.85;0.90;;;14.00;99.90;;;;;;5031402;28;20545;-82
2022/10/06 01:13:01;;;;;;;1.58;0.50;;;14.00;99.90;;;;;;5031698;28;20088;-78
2022/10/06 01:15:27;;;;;;;1.33;0.60;;;14.00;99.90;;;;;;5032092;28;20088;-82
2022/10/06 01:18:12;;;;;;;4.38;0.68;;;14.00;99.90;;;;;;5030218;28;20073;-78
2022/10/06 01:20:48;;;;;;;4.47;0.90;;;14.10;99.90;;;;;;5032440;28;20034;-77
2022/10/06 01:23:14;;;;;;;3.45;0.90;;;14.10;99.90;;;;;;5032016;28;20444;-75
2022/10/06 01:25:41;;;;;;;6.40;0.70;;;14.10;99.90;;;;;;5031520;28;20033;-76
2022/10/06 01:28:09;;;;;;;3.08;0.70;;;14.10;99.90;;;;;;5046599;28;20399;-76
2022/10/06 01:30:40;;;;;;;9.32;1.20;;;14.10;99.90;;;;;;5031176;28;20038;-76
2022/10/06 01:33:06;;;;;;;3.40;0.63;;;14.10;99.90;;;;;;5033250;28;20042;-78
2022/10/06 01:35:33;;;;;;;2.38;0.98;;;14.10;99.90;;;;;;5031175;28;20025;-78
2022/10/06 01:37:58;;;;;;;5.65;0.90;;;14.10;99.90;;;;;;5032457;28;20025;-80
2022/10/06 01:40:27;;;;;;;6.43;0.80;;;14.10;99.90;;;;;;5029684;28;20036;-77
2022/10/06 01:42:53;;;;;;;8.15;0.95;;;14.10;99.90;;;;;;5030843;28;20089;-77
2022/10/06 01:45:19;;;;;;;4.32;0.52;;;14.10;99.90;;;;;;5033445;28;20045;-77
2022/10/06 01:47:46;;;;;;;1.98;0.55;;;14.00;99.90;;;;;;5031158;28;20073;-77
2022/10/06 01:50:12;;;;;;;3.38;0.85;;;14.00;99.90;;;;;;5031536;28;20070;-76
2022/10/06 01:52:38;;;;;;;3.75;0.80;;;14.00;99.90;;;;;;5030148;28;20017;-74
2022/10/06 01:55:04;;;;;;;7.50;0.90;;;14.00;99.90;;;;;;5030875;28;20101;-77
2022/10/06 01:57:29;;;;;;;3.22;0.75;;;14.00;99.90;;;;;;5031702;28;20018;-78
2022/10/06 01:59:55;;;;;;;2.40;0.60;;;14.00;99.90;;;;;;5031005;28;20025;-75
2022/10/06 02:02:21;;;;;;;5.30;1.02;;;14.00;99.90;;;;;;5031982;28;20030;-77
2022/10/06 02:04:47;;;;;;;3.42;0.85;;;13.90;99.90;;;;;;5029777;28;20037;-77
2022/10/06 02:07:12;;;;;;;9.00;1.30;;;13.90;99.90;;;;;;5032988;28;20145;-74
2022/10/06 02:09:38;;;;;;;4.35;1.00;;;13.90;99.90;;;;;;5034694;28;20086;-78
2022/10/06 02:12:04;;;;;;;4.18;0.70;;;13.90;99.90;;;;;;5034818;28;20049;-77
2022/10/06 02:14:35;;;;;;;3.40;1.02;;;13.90;99.90;;;;;;5034281;28;20092;-77
2022/10/06 02:17:02;;;;;;;4.40;1.30;;;13.90;99.90;;;;;;5035055;28;20466;-78
2022/10/06 02:19:27;;;;;;;1.77;0.75;;;13.80;99.90;;;;;;5041405;28;20022;-77
2022/10/06 02:21:53;;;;;;;6.32;1.08;;;13.80;99.90;;;;;;5040961;28;20048;-80
2022/10/06 02:24:18;;;;;;;11.85;1.50;;;13.80;99.90;;;;;;5040927;28;20033;-75
2022/10/06 02:26:44;;;;;;;5.53;0.98;;;13.70;99.90;;;;;;5036262;28;20044;-72
2022/10/06 02:29:10;;;;;;;5.35;1.15;;;13.70;99.90;;;;;;5035773;28;20097;-75
2022/10/06 02:31:36;;;;;;;2.70;1.08;;;13.70;99.90;;;;;;5049888;28;20037;-77
2022/10/06 02:34:01;;;;;;;3.90;1.05;;;13.70;99.90;;;;;;5035025;28;20037;-77
2022/10/06 02:36:27;;;;;;;5.90;0.93;;;13.70;99.90;;;;;;5034506;28;20036;-76
2022/10/06 02:38:53;;;;;;;5.90;1.13;;;13.70;99.90;;;;;;5032963;28;20017;-74
2022/10/06 02:41:19;;;;;;;7.97;1.00;;;13.60;99.90;;;;;;5040228;28;20133;-75
2022/10/06 02:43:44;;;;;;;4.22;1.08;;;13.60;99.90;;;;;;5040440;28;20048;-76
2022/10/06 02:46:12;;;;;;;4.70;0.98;;;13.60;99.90;;;;;;5034193;28;20057;-79
2022/10/06 02:48:41;;;;;;;3.33;0.70;;;13.60;99.90;;;;;;5033705;28;20516;-77
2022/10/06 02:51:10;;;;;;;5.75;1.13;;;13.60;99.90;;;;;;5033857;28;20076;-75
2022/10/06 02:53:37;;;;;;;5.57;0.85;;;13.50;99.90;;;;;;5033175;28;20119;-76
2022/10/06 02:56:11;;;;;;;8.90;1.23;;;13.50;99.90;;;;;;5034954;28;20056;-76
2022/10/06 02:58:41;;;;;;;4.00;0.98;;;13.50;99.90;;;;;;5034384;28;20025;-78
2022/10/06 03:01:13;;;;;;;3.22;1.13;;;13.50;99.90;;;;;;5032592;28;20026;-77
2022/10/06 03:03:39;;;;;;;3.65;0.93;;;13.40;99.90;;;;;;5031646;28;20453;-76
2022/10/06 03:06:24;;;;;;;10.23;1.58;;;13.40;99.90;;;;;;5033674;28;20045;-81
2022/10/06 03:08:53;;;;;;;5.30;0.98;;;13.40;99.90;;;;;;5031980;28;20102;-78
2022/10/06 03:11:21;;;;;;;6.03;1.00;;;13.30;99.90;;;;;;5039636;28;20022;-77
2022/10/06 03:13:48;;;;;;;8.02;1.15;;;13.30;99.90;;;;;;5032213;28;20037;-74
2022/10/06 03:16:30;;;;;;;7.00;1.80;;;13.30;99.90;;;;;;5032391;28;20437;-77
2022/10/06 03:18:57;;;;;;;4.90;1.13;;;13.30;99.90;;;;;;5033153;28;20044;-76
2022/10/06 03:21:26;;;;;;;5.88;1.15;;;13.20;99.90;;;;;;5033075;28;20026;-76
2022/10/06 03:23:53;;;;;;;5.68;0.88;;;13.30;99.90;;;;;;5031498;28;20037;-76
2022/10/06 03:26:21;;;;;;;6.22;1.40;;;13.20;99.90;;;;;;5033574;28;20039;-77
2022/10/06 03:28:47;;;;;;;5.53;1.10;;;13.20;99.90;;;;;;5032300;28;20022;-76
2022/10/06 03:31:13;;;;;;;4.57;1.15;;;13.20;99.90;;;;;;5033096;28;20022;-76
2022/10/06 03:33:40;;;;;;;6.78;1.35;;;13.20;99.90;;;;;;5032875;28;20034;-73
2022/10/06 03:36:12;;;;;;;6.80;1.30;;;13.20;99.90;;;;;;5033739;28;20113;-79
2022/10/06 03:38:39;;;;;;;12.20;2.00;;;13.20;99.90;;;;;;5033638;28;20033;-78
2022/10/06 03:41:10;;;;;;;10.68;1.40;;;13.10;99.90;;;;;;5033083;28;20037;-76
2022/10/06 03:43:37;;;;;;;10.05;1.67;;;13.10;99.90;;;;;;5033678;28;20030;-78
2022/10/06 03:46:05;;;;;;;5.28;1.17;;;13.10;99.90;;;;;;5032974;28;20048;-78
2022/10/06 03:48:33;;;;;;;5.70;1.65;;;13.10;99.90;;;;;;5033138;28;21631;-76
2022/10/06 03:51:04;;;;;;;7.72;1.27;;;13.10;99.90;;;;;;5032695;28;20045;-75
2022/10/06 03:53:30;;;;;;;6.60;1.35;;;13.10;99.90;;;;;;5015646;28;20105;-82
2022/10/06 03:56:03;;;;;;;5.78;1.45;;;13.10;99.90;;;;;;5032071;28;20788;-77
2022/10/06 03:58:29;;;;;;;4.95;1.20;;;13.00;99.90;;;;;;5032845;28;20026;-76
2022/10/06 04:01:03;;;;;;;12.48;1.85;;;13.10;99.90;;;;;;5039033;28;20484;-78
2022/10/06 04:03:29;;;;;;;9.00;1.58;;;13.00;99.90;;;;;;5031620;28;20128;-77
2022/10/06 04:05:57;;;;;;;11.82;1.80;;;13.00;99.90;;;;;;5031099;28;20037;-76
2022/10/06 04:08:23;;;;;;;11.77;1.48;;;13.00;99.90;;;;;;5031296;28;20021;-76
2022/10/06 04:10:49;;;;;;;4.63;1.23;;;13.00;99.90;;;;;;5030866;28;20029;-75
2022/10/06 04:13:17;;;;;;;22.77;1.60;;;12.90;99.90;;;;;;5032777;28;21665;-72
2022/10/06 04:15:43;;;;;;;7.40;1.70;;;12.90;99.90;;;;;;5032165;28;20028;-74
2022/10/06 04:18:09;;;;;;;6.85;1.63;;;12.90;99.90;;;;;;5032903;28;20028;-73
2022/10/06 04:20:35;;;;;;;6.68;1.52;;;12.90;99.90;;;;;;5039668;28;20036;-76
2022/10/06 04:23:02;;;;;;;2.70;1.02;;;12.80;99.90;;;;;;5033476;28;20034;-76
2022/10/06 04:25:28;;;;;;;6.95;1.65;;;12.80;99.90;;;;;;5033164;28;20164;-75
2022/10/06 04:27:54;;;;;;;7.65;1.55;;;12.80;99.90;;;;;;5029013;28;20053;-70
2022/10/06 04:30:19;;;;;;;7.03;1.60;;;12.80;99.90;;;;;;5031911;28;20026;-73
2022/10/06 04:32:45;;;;;;;6.75;1.60;;;12.80;99.90;;;;;;5032721;28;20021;-76
2022/10/06 04:35:11;;;;;;;9.07;1.75;;;12.80;99.90;;;;;;5037674;28;20051;-74
2022/10/06 04:37:38;;;;;;;8.32;1.58;;;12.80;99.90;;;;;;5031914;28;20021;-75
2022/10/06 04:40:05;;;;;;;9.77;1.45;;;12.80;99.90;;;;;;5038832;28;20492;-75
2022/10/06 04:42:31;;;;;;;8.10;1.42;;;12.70;99.90;;;;;;5031750;28;20017;-75
2022/10/06 04:44:56;;;;;;;13.45;1.90;;;12.80;99.90;;;;;;5031973;28;20034;-74
2022/10/06 04:47:22;;;;;;;11.63;1.70;;;12.70;99.90;;;;;;5029037;28;20025;-82
2022/10/06 04:49:47;;;;;;;16.48;1.88;;;12.70;99.90;;;;;;5031704;28;20072;-75
2022/10/06 04:52:13;;;;;;;9.45;1.70;;;12.70;99.90;;;;;;5031803;28;20032;-78
2022/10/06 04:54:41;;;;;;;12.57;2.38;;;12.70;99.90;;;;;;5031180;28;20041;-75
2022/10/06 04:57:07;;;;;;;10.75;2.00;;;12.70;99.90;;;;;;5031570;28;20077;-76
2022/10/06 05:02:23;;;;;;;16.90;1.98;;;12.70;99.90;;;;;;5030547;28;20053;-75
2022/10/06 05:04:49;;;;;;;4.43;1.27;;;12.60;99.90;;;;;;5030176;28;20033;-75
2022/10/06 05:07:15;;;;;;;10.93;2.00;;;12.60;99.90;;;;;;5030975;28;20496;-76
2022/10/06 05:09:41;;;;;;;15.07;1.60;;;12.60;99.90;;;;;;5033821;28;20120;-76
2022/10/06 05:12:09;;;;;;;9.80;1.58;;;12.60;99.90;;;;;;5034234;28;20060;-75
2022/10/06 05:14:36;;;;;;;7.35;1.65;;;12.60;99.90;;;;;;5021432;28;20438;-76
2022/10/06 05:17:02;;;;;;;10.05;1.52;;;12.50;99.90;;;;;;5031190;28;20092;-77
2022/10/06 05:19:28;;;;;;;12.77;1.63;;;12.50;99.90;;;;;;5039025;28;20083;-81
2022/10/06 05:21:53;;;;;;;8.55;1.90;;;12.50;99.90;;;;;;5034821;28;20021;-77
2022/10/06 05:24:19;;;;;;;10.15;1.40;;;12.50;99.90;;;;;;5032823;28;20102;-81
2022/10/06 05:26:44;;;;;;;8.93;1.38;;;12.50;99.90;;;;;;5034231;28;20032;-80
2022/10/06 05:29:10;;;;;;;6.57;1.50;;;12.50;99.90;;;;;;5031820;28;20036;-79
2022/10/06 05:31:39;;;;;;;7.43;1.42;;;12.50;99.90;;;;;;5031490;28;20077;-79
2022/10/06 05:34:05;;;;;;;10.82;1.15;;;12.40;99.90;;;;;;5030940;28;20122;-81
2022/10/06 05:36:32;;;;;;;9.48;2.03;;;12.40;99.90;;;;;;5031647;28;20157;-79
2022/10/06 05:38:59;;;;;;;5.28;1.65;;;12.40;99.90;;;;;;5031501;28;20025;-79
2022/10/06 05:41:29;;;;;;;15.55;2.03;;;12.40;99.90;;;;;;5034121;28;20093;-80
2022/10/06 05:43:57;;;;;;;14.38;1.58;;;12.40;99.90;;;;;;5035317;28;20147;-79
2022/10/06 05:46:27;;;;;;;7.05;1.75;;;12.40;99.90;;;;;;5033573;28;20030;-81
2022/10/06 05:48:57;;;;;;;15.63;1.85;;;12.40;99.90;;;;;;5034300;28;20042;-77
2022/10/06 05:51:28;;;;;;;13.55;1.70;;;12.40;99.90;;;;;;5034775;28;20066;-76
2022/10/06 05:53:53;;;;;;;11.80;1.50;;;12.30;99.90;;;;;;5034944;28;20404;-77
2022/10/06 05:56:22;;;;;;;6.55;1.48;;;12.30;99.90;;;;;;5035177;28;20045;-80
2022/10/06 05:58:50;;;;;;;13.10;1.80;;;12.40;99.90;;;;;;5034789;28;20030;-80
2022/10/06 06:01:19;;;;;;;5.15;1.65;;;12.30;99.90;;;;;;5034895;28;20036;-81
2022/10/06 06:03:53;;;;;;;13.30;1.83;;;12.30;99.90;;;;;;5034846;28;20041;-77
2022/10/06 06:06:24;;;;;;;;;;;12.30;99.90;;;;;;5035536;28;20041;-74
2022/10/06 06:09:07;;;;;;;9.82;1.80;;;12.30;99.90;;;;;;5050346;28;19909;-79
2022/10/06 06:11:35;;;;;;;12.82;1.48;;;12.30;99.90;;;;;;5034957;28;20021;-81
2022/10/06 06:14:08;;;;;;;7.65;1.38;;;12.20;99.90;;;;;;5033399;28;20065;-77
2022/10/06 06:16:35;;;;;;;4.07;1.50;;;12.30;99.90;;;;;;5035653;28;20033;-78
2022/10/06 06:19:02;;;;;;;5.78;1.70;;;12.30;99.90;;;;;;5033983;28;20121;-79
2022/10/06 06:21:28;;;;;;;10.25;1.63;;;12.30;99.90;;;;;;5033018;28;20018;-81
2022/10/06 06:23:54;;;;;;;6.50;1.80;;;12.30;99.90;;;;;;5034643;28;20506;-79
2022/10/06 06:26:24;;;;;;;12.82;1.88;;;12.30;99.90;;;;;;5034321;28;20040;-75
2022/10/06 06:28:51;;;;;;;8.23;1.60;;;12.30;99.90;;;;;;5035038;28;20048;-82
2022/10/06 06:31:20;;;;;;;8.05;1.88;;;12.30;99.90;;;;;;5036596;28;20046;-70
2022/10/06 06:33:46;;;;;;;5.85;1.88;;;12.30;99.90;;;;;;5035941;28;20044;-79
2022/10/06 06:36:52;;;;;;;11.95;1.75;;;12.30;99.90;;;;;;5035883;28;20030;-81
2022/10/06 06:39:18;;;;;;;13.82;1.98;;;12.30;99.90;;;;;;5034400;28;20041;-78
2022/10/06 06:41:45;;;;;;;8.25;1.88;;;12.30;99.90;;;;;;5034418;28;20064;-83
2022/10/06 06:44:12;;;;;;;10.27;2.25;;;12.40;99.90;;;;;;5034747;28;21184;-79
2022/10/06 06:46:41;;;;;;;11.93;1.70;;;12.40;99.90;;;;;;5032796;28;20081;-81
2022/10/06 06:49:08;;;;;;;20.00;2.38;;;12.50;99.90;;;;;;5033787;28;20046;-76
2022/10/06 06:51:36;;;;;;;6.97;1.67;;;12.50;99.90;;;;;;5033925;28;20100;-80
2022/10/06 06:54:04;;;;;;;15.73;1.80;;;12.50;99.90;;;;;;5031966;28;20140;-81
2022/10/06 06:56:33;;;;;;;11.45;2.08;;;12.60;99.90;;;;;;5032555;28;20026;-79
2022/10/06 06:59:00;;;;;;;8.45;1.60;;;12.60;99.90;;;;;;5034206;28;20492;-75
2022/10/06 07:01:25;;;;;;;11.40;2.13;;;12.70;99.90;;;;;;5032717;28;20025;-78
2022/10/06 07:03:54;;;;;;;10.02;1.63;;;12.70;99.90;;;;;;5034262;28;20048;-78
2022/10/06 07:06:22;;;;;;;6.88;1.50;;;12.80;99.90;;;;;;5034283;28;20022;-79
2022/10/06 07:08:48;;;;;;;11.10;2.28;;;12.80;99.90;;;;;;5032120;28;20025;-79
2022/10/06 07:11:25;;;;;;;7.10;1.50;;;12.80;99.90;;;;;;5033065;28;20032;-79
2022/10/06 07:13:54;;;;;;;7.75;1.55;;;12.90;99.90;;;;;;5033923;28;20048;-76
2022/10/06 07:27:24;;;;;;;10.45;1.90;;;13.10;99.90;;;;;;5033341;28;20028;-79
2022/10/06 07:29:53;;;;;;;9.38;1.92;;;13.20;99.90;;;;;;5031609;28;20053;-80
2022/10/06 07:32:26;;;;;;;11.43;1.83;;;13.30;99.90;;;;;;5032962;28;20064;-80
2022/10/06 07:34:52;;;;;;;9.20;1.45;;;13.40;99.90;;;;;;5032448;28;20105;-79
2022/10/06 07:37:18;;;;;;;6.38;1.48;;;13.50;99.90;;;;;;5032286;28;20030;-75
2022/10/06 07:39:48;;;;;;;16.92;2.08;;;13.60;99.90;;;;;;5031741;28;20021;-75
2022/10/06 07:42:14;;;;;;;6.10;1.38;;;13.70;99.90;;;;;;5032059;28;20029;-76
2022/10/06 07:45:36;;;;;;;11.30;1.70;;;13.90;99.90;;;;;;5038617;28;20092;-74
2022/10/06 07:47:29;;;;;;;9.05;1.92;;;14.00;99.90;;;;;;5032572;28;20058;-71
2022/10/06 07:49:57;;;;;;;9.93;2.00;;;14.20;99.90;;;;;;5039290;28;20088;-72
2022/10/06 07:52:23;;;;;;;7.40;1.83;;;14.40;99.90;;;;;;5033326;28;20022;-73
2022/10/06 07:54:49;;;;;;;8.55;2.15;;;14.50;99.90;;;;;;5033310;28;20091;-73
2022/10/06 07:57:15;;;;;;;6.93;1.55;;;14.70;99.90;;;;;;5031096;28;20037;-73
2022/10/06 07:59:41;;;;;;;6.85;1.90;;;14.80;99.90;;;;;;5031657;28;20065;-79
2022/10/06 08:02:06;;;;;;;11.13;1.70;;;14.90;99.90;;;;;;5032229;28;20037;-76
2022/10/06 08:04:32;;;;;;;8.82;1.90;;;15.00;99.90;;;;;;5037593;28;20026;-72
2022/10/06 08:06:57;;;;;;;17.60;1.63;;;15.00;99.90;;;;;;5033387;28;20026;-74
2022/10/06 08:09:23;;;;;;;19.13;2.05;;;15.00;99.90;;;;;;5031583;28;20034;-72
2022/10/06 08:11:49;;;;;;;20.05;2.03;;;14.90;99.90;;;;;;5030949;28;20048;-73
2022/10/06 08:14:15;;;;;;;8.15;1.80;;;14.80;99.90;;;;;;5030303;28;20078;-73
2022/10/06 08:16:41;;;;;;;8.32;2.20;;;14.70;99.90;;;;;;5033734;28;20033;-72
2022/10/06 08:19:06;;;;;;;6.72;1.85;;;14.70;99.90;;;;;;5032452;28;20466;-73
2022/10/06 08:21:33;;;;;;;7.57;1.60;;;14.60;99.90;;;;;;5031207;28;20033;-74
2022/10/06 08:24:00;;;;;;;15.45;1.90;;;14.60;99.90;;;;;;5038984;28;20021;-73
2022/10/06 08:26:27;;;;;;;11.30;1.73;;;14.50;99.90;;;;;;5032036;28;20516;-74
2022/10/06 08:28:57;;;;;;;13.25;2.13;;;14.50;99.90;;;;;;5032432;28;20408;-76
2022/10/06 08:31:23;;;;;;;5.18;1.55;;;14.50;99.90;;;;;;5031178;28;20032;-74
2022/10/06 08:33:54;;;;;;;11.70;2.20;;;14.50;99.90;;;;;;5031308;28;20037;-74
2022/10/06 08:36:22;;;;;;;12.43;1.58;;;14.50;99.90;;;;;;5032847;28;20028;-74
2022/10/06 08:38:51;;;;;;;11.60;1.67;;;14.50;99.90;;;;;;5030811;28;20036;-75
2022/10/06 08:41:23;;;;;;;13.10;2.08;;;14.60;99.90;;;;;;5039063;28;20033;-73
2022/10/06 08:44:06;;;;;;;10.25;1.88;;;14.60;99.90;;;;;;5030856;28;20413;-74
2022/10/06 08:46:43;;;;;;;14.45;1.85;;;14.60;99.90;;;;;;5030746;28;20075;-75
2022/10/06 08:49:17;;;;;;;6.43;2.00;;;14.60;99.90;;;;;;5026516;28;20042;-74
2022/10/06 08:52:14;;;;;;;14.43;2.00;;;14.60;99.90;;;;;;5011540;28;20090;-74
2022/10/06 08:54:58;;;;;;;18.33;2.38;;;14.70;99.90;;;;;;5012435;28;20042;-71
2022/10/06 08:58:03;;;;;;;8.35;2.17;;;14.70;99.90;;;;;;5011365;28;20062;-73
2022/10/06 09:00:31;;;;;;;16.20;2.30;;;14.70;99.90;;;;;;4992277;28;20034;-72
2022/10/06 09:02:58;;;;;;;7.38;1.88;;;14.80;99.90;;;;;;4995967;28;20070;-71
2022/10/06 09:05:27;;;;;;;8.50;1.73;;;14.90;99.90;;;;;;5010636;28;20117;-74
2022/10/06 09:08:18;;;;;;;11.70;2.08;;;14.90;99.90;;;;;;5012648;28;20502;-73
2022/10/06 09:11:33;;;;;;;9.75;1.52;;;15.00;99.90;;;;;;5028127;28;20428;-76
2022/10/06 09:14:38;;;;;;;12.67;2.00;;;15.00;99.90;;;;;;4931977;29;20070;-73
2022/10/06 09:17:10;;;;;;;9.65;1.92;;;15.10;99.90;;;;;;5028292;28;20493;-77
2022/10/06 09:19:44;;;;;;;6.22;1.77;;;15.10;99.90;;;;;;5031417;28;20046;-76
2022/10/06 09:22:20;;;;;;;;;;;15.20;99.90;;;;;;5016626;28;20022;-74
2022/10/06 09:24:49;;;;;;;9.15;1.90;;;15.20;99.90;;;;;;5015466;28;19916;-72
2022/10/06 09:27:27;;;;;;;7.45;2.22;;;15.30;99.90;;;;;;5014261;28;20037;-75
2022/10/06 09:29:53;;;;;;;11.73;2.25;;;15.40;99.90;;;;;;5015558;28;20069;-77
2022/10/06 09:32:21;;;;;;;8.13;1.55;;;15.40;99.90;;;;;;5017199;28;20014;-76
2022/10/06 09:34:55;;;;;;;8.73;2.15;;;15.40;99.90;;;;;;5009861;28;20038;-76
2022/10/06 09:37:22;;;;;;;13.48;2.22;;;15.50;99.90;;;;;;5016088;28;20037;-74
2022/10/06 09:39:49;;;;;;;18.15;2.38;;;15.60;99.90;;;;;;5015278;28;20058;-74
2022/10/06 09:42:22;;;;;;;4.72;1.27;;;15.70;99.90;;;;;;5016279;28;20026;-74
2022/10/06 09:45:06;;;;;;;8.23;1.88;;;15.60;99.90;;;;;;5017120;28;20034;-74
2022/10/06 09:47:38;;;;;;;16.73;2.67;;;15.50;99.90;;;;;;5019026;28;20085;-75
2022/10/06 09:50:23;;;;;;;18.17;2.03;;;15.50;99.90;;;;;;5038268;28;20044;-72
2022/10/06 09:52:59;;;;;;;11.25;1.95;;;15.50;99.90;;;;;;5037438;28;20609;-76
2022/10/06 09:55:29;;;;;;;8.77;1.88;;;15.50;99.90;;;;;;5036690;28;20084;-77
2022/10/06 09:57:56;;;;;;;11.23;2.35;;;15.60;99.90;;;;;;5035293;28;20020;-76
2022/10/06 10:01:08;;;;;;;6.63;1.90;;;15.70;99.90;;;;;;5033155;28;20545;-77
2022/10/06 10:03:44;;;;;;;13.95;1.90;;;15.90;99.90;;;;;;4982023;28;20031;-79
2022/10/06 10:06:26;;;;;;;7.32;1.60;;;15.90;99.90;;;;;;5014526;28;20112;-74
2022/10/06 10:09:11;;;;;;;9.18;1.80;;;15.90;99.90;;;;;;5036948;28;20030;-73
2022/10/06 10:14:20;;;;;;;11.23;1.80;;;16.20;99.90;;;;;;5036267;28;20052;-73
2022/10/06 10:16:47;;;;;;;7.85;1.60;;;16.30;99.90;;;;;;5035234;28;20034;-76
2022/10/06 10:19:41;;;;;;;8.27;2.05;;;16.50;99.90;;;;;;5034944;28;20079;-74
2022/10/06 10:22:32;;;;;;;10.50;1.80;;;16.50;99.90;;;;;;5035255;28;20034;-78
2022/10/06 10:25:05;;;;;;;9.38;2.20;;;16.60;99.90;;;;;;5024570;28;20041;-76
2022/10/06 10:27:54;;;;;;;8.20;1.50;;;16.60;99.90;;;;;;5035259;28;20032;-76
2022/10/06 10:30:20;;;;;;;11.93;1.30;;;16.80;99.90;;;;;;5034543;28;20037;-75
2022/10/06 10:33:01;;;;;;;6.38;1.52;;;17.00;99.90;;;;;;5034536;28;20026;-76
2022/10/06 10:35:34;;;;;;;14.02;1.67;;;17.10;99.90;;;;;;5040225;28;20030;-75
2022/10/06 10:38:03;;;;;;;4.22;1.30;;;17.20;99.90;;;;;;5035825;28;20088;-75
2022/10/06 10:40:54;;;;;;;9.05;1.65;;;17.10;99.90;;;;;;5037441;28;20050;-77
2022/10/06 10:43:36;;;;;;;6.55;1.25;;;17.00;99.90;;;;;;5035470;28;20492;-73
2022/10/06 10:46:15;;;;;;;6.07;1.27;;;16.80;99.90;;;;;;5016086;28;20022;-73
2022/10/06 10:48:56;;;;;;;8.00;0.98;;;16.60;99.90;;;;;;5028986;28;20447;-79
2022/10/06 10:51:29;;;;;;;15.55;1.50;;;16.50;99.90;;;;;;5036012;28;20025;-76
2022/10/06 10:54:12;;;;;;;5.40;1.52;;;16.50;99.90;;;;;;5034274;28;20104;-73
2022/10/06 10:56:38;;;;;;;8.73;1.70;;;16.50;99.90;;;;;;5036756;28;20064;-80
2022/10/06 10:59:16;;;;;;;9.65;1.67;;;16.30;99.90;;;;;;5040088;28;20508;-74
2022/10/06 11:01:54;;;;;;;4.45;1.30;;;16.20;99.90;;;;;;5034324;28;20389;-75
2022/10/06 11:04:20;;;;;;;7.13;1.85;;;16.00;99.90;;;;;;5038470;28;20021;-79
2022/10/06 11:06:53;;;;;;;5.90;1.25;;;15.90;99.90;;;;;;5019830;28;20399;-75
2022/10/06 11:09:41;;;;;;;5.10;1.60;;;16.10;99.90;;;;;;5036692;28;20034;-76
2022/10/06 11:12:32;;;;;;;6.80;1.67;;;16.30;99.90;;;;;;5018633;28;20029;-74
2022/10/06 11:15:23;;;;;;;8.85;1.38;;;16.60;99.90;;;;;;5036314;28;20040;-75
2022/10/06 11:17:51;;;;;;;7.05;1.90;;;16.80;99.90;;;;;;5035584;28;20060;-76
2022/10/06 11:20:42;;;;;;;9.18;1.50;;;17.00;99.90;;;;;;5035196;28;20041;-74
2022/10/06 11:23:14;;;;;;;13.90;1.58;;;17.20;99.90;;;;;;5040958;28;20037;-79
2022/10/06 11:25:48;;;;;;;9.05;1.83;;;17.30;99.90;;;;;;5033413;28;20021;-78
2022/10/06 11:28:19;;;;;;;5.10;1.77;;;17.50;99.90;;;;;;5032620;28;20041;-76
2022/10/06 11:31:16;;;;;;;8.05;1.42;;;17.30;99.90;;;;;;5033248;28;20026;-77
2022/10/06 11:33:59;;;;;;;8.43;1.33;;;17.40;99.90;;;;;;5032778;28;20037;-75
2022/10/06 11:36:44;;;;;;;8.43;1.60;;;17.70;99.90;;;;;;5034429;28;20094;-79
2022/10/06 11:39:29;;;;;;;7.80;1.60;;;17.90;99.90;;;;;;5032264;28;20041;-78
2022/10/06 11:42:08;;;;;;;5.82;1.50;;;18.10;99.90;;;;;;5030843;28;20064;-72
2022/10/06 11:44:45;;;;;;;8.52;1.60;;;18.10;99.90;;;;;;5032156;28;20044;-74
2022/10/06 11:47:19;;;;;;;8.68;1.23;;;18.30;99.90;;;;;;5033070;28;20025;-75
2022/10/06 11:49:51;;;;;;;3.53;0.90;;;18.40;99.90;;;;;;5033011;28;20052;-74
2022/10/06 11:52:17;;;;;;;3.50;1.02;;;18.50;99.90;;;;;;5023453;28;20041;-74
2022/10/06 11:54:53;;;;;;;7.25;1.55;;;18.60;99.90;;;;;;5033737;28;20168;-76
2022/10/06 11:57:21;;;;;;;4.82;1.10;;;18.70;99.90;;;;;;5033902;28;20037;-79
2022/10/06 11:59:51;;;;;;;6.25;1.10;;;18.80;99.90;;;;;;5039914;28;20017;-76
2022/10/06 12:02:35;;;;;;;6.82;1.05;;;19.00;99.90;;;;;;5032979;28;20024;-75
2022/10/06 12:05:22;;;;;;;4.85;1.13;;;19.10;99.90;;;;;;5032281;28;20029;-77
2022/10/06 12:07:54;;;;;;;6.80;0.95;;;19.40;99.90;;;;;;5032082;28;20034;-76
2022/10/06 12:10:28;;;;;;;2.17;0.80;;;19.50;99.90;;;;;;5031925;28;20104;-74
2022/10/06 12:13:24;;;;;;;11.13;1.42;;;19.70;99.90;;;;;;5031611;28;20025;-77
2022/10/06 12:16:08;;;;;;;9.10;1.83;;;20.00;99.90;;;;;;5033820;28;20044;-73
2022/10/06 12:18:39;;;;;;;7.55;1.50;;;20.20;99.90;;;;;;5034226;28;20025;-79
2022/10/06 12:21:15;;;;;;;8.05;1.50;;;20.30;99.90;;;;;;5038473;28;20061;-78
2022/10/06 12:24:04;;;;;;;6.00;1.20;;;20.30;99.90;;;;;;5047717;28;20025;-77
2022/10/06 12:27:05;;;;;;;7.00;0.98;;;20.20;99.90;;;;;;5008757;28;20072;-74
2022/10/06 12:29:51;;;;;;;8.30;1.67;;;20.00;99.90;;;;;;5032945;28;20088;-73
2022/10/06 12:32:38;;;;;;;5.40;1.10;;;20.10;99.90;;;;;;5032155;28;20025;-74
2022/10/06 12:35:08;;;;;;;8.48;1.48;;;20.00;99.90;;;;;;5034285;28;20041;-75
2022/10/06 12:37:57;;;;;;;4.40;0.98;;;20.10;99.90;;;;;;5038495;28;20034;-73
2022/10/06 12:40:46;;;;;;;5.10;1.20;;;20.20;99.90;;;;;;5033168;28;20035;-75
2022/10/06 12:43:19;;;;;;;3.92;1.42;;;20.10;99.90;;;;;;5033236;28;20042;-75
2022/10/06 12:45:54;;;;;;;12.13;1.88;;;20.10;99.90;;;;;;5032988;28;20022;-75
2022/10/06 12:48:36;;;;;;;4.50;1.15;;;20.10;99.90;;;;;;5036086;28;20088;-73
2022/10/06 12:51:25;;;;;;;10.93;1.10;;;20.20;99.90;;;;;;5021801;28;20036;-77
2022/10/06 12:54:18;;;;;;;10.95;1.40;;;20.10;99.90;;;;;;5034061;28;20045;-74
2022/10/06 12:56:57;;;;;;;9.57;1.38;;;20.20;99.90;;;;;;5033219;28;20029;-76
2022/10/06 12:59:30;;;;;;;6.57;1.08;;;20.00;99.90;;;;;;5031834;28;20037;-75
2022/10/06 13:02:20;;;;;;;4.78;1.00;;;19.80;99.90;;;;;;5032596;28;20037;-76
2022/10/06 13:04:59;;;;;;;3.97;0.80;;;19.70;99.90;;;;;;5031149;28;20018;-76
2022/10/06 13:07:30;;;;;;;5.70;1.40;;;19.60;99.90;;;;;;5034840;28;20033;-78
2022/10/06 13:10:14;;;;;;;5.30;1.40;;;19.70;99.90;;;;;;5032690;28;20030;-76
2022/10/06 13:12:45;;;;;;;3.63;1.20;;;19.80;99.90;;;;;;5032406;28;20524;-77
2022/10/06 13:15:22;;;;;;;8.57;1.55;;;19.90;99.90;;;;;;5032946;28;20150;-72
2022/10/06 13:18:08;;;;;;;3.90;1.27;;;19.90;99.90;;;;;;5032031;28;20485;-74
2022/10/06 13:20:38;;;;;;;8.40;1.08;;;19.90;99.90;;;;;;5031031;28;20038;-73
2022/10/06 13:23:29;;;;;;;6.85;1.02;;;19.80;99.90;;;;;;5030802;28;20021;-80
2022/10/06 13:26:00;;;;;;;5.05;1.13;;;19.90;99.90;;;;;;5030996;28;20033;-74